Albion, IA

10:14 AM CDT on June 29, 2017 (GMT -0500)
Marshalltown Municipal | | Change Station

Elev 971 ft 42.11 °N, 92.92 °W | Updated 21 minutes ago

Overcast
Overcast
73 °F
Feels Like 73 °F
N
9
Wind Variable Wind from SSW

Today
High -- | Low -- °F
--% Chance of Precip.
Yesterday
High -- | Low -- °F
Precip. -- in
Pressure 29.79 in
Visibility 10.0 miles
Clouds Few 1400 ft
Overcast 2500 ft
Dew Point 69 °F
Humidity 87%
Rainfall 0.00 in
Snow Depth Not available.
5:38 AM 8:51 PM
Waxing Crescent, 36% visible
METAR KMIW 291453Z AUTO 20008KT 10SM FEW014 OVC025 23/21 A2981 RMK AO2 SLP087 T02280206 53017
Pressure 29.79 in
Visibility 10.0 miles
Clouds Few 1400 ft
Overcast 2500 ft
Dew Point 69 °F
Humidity 87%
Rainfall 0.00 in
Snow Depth Not available.
5:38 AM 8:51 PM
Waxing Crescent, 36% visible
METAR KMIW 291453Z AUTO 20008KT 10SM FEW014 OVC025 23/21 A2981 RMK AO2 SLP087 T02280206 53017

Get Severe Weather Alerts

Thanks for signing up!

Be on the lookout for a verification email in your inbox.

You'll start receiving the daily forecast at 6 AM.

×

10-Day Weather Forecast

Almanac

Astronomy

Jun. 29, 2017 Rise Set
Actual Time
Civil Twilight
Nautical Twilight
Astronomical Twilight
Moon
Length of Visible Light
Length of Day
Tomorrow will be .
, % of the Moon is Illuminated

Today's Extremes

State Highs State Lows

Community

WunderPhotos

Category 6

Welcome to Category 6. This is the collective home for Weather Underground's featured writeups by Dr. Jeff Masters (right), Bob Henson (left), Chris Burt, and other regular contributors.

Nearby

Air Quality

  Air Quality AQ Index Pollutant
Not available.

Snow Depth

Station Depth Elevation

Earthquake Activity

City Distance Mag. Time & Date
Minimum magnitude displayed is 2.5.

Coastal Water Temperatures

Place Temperature

Stations

Nearby Weather Stations

Station Location Temp. Windchill Dew Point Humidity Wind Precip. Elev Updated Type
                   

Watches & Warnings

There are currently no watches in effect.